Terminal Aerodrome Forecast
Issued by NWS

Home | Current Version | Previous Version | Text Only | Print | Product List | Glossary On
Versions: 1 2 3 4 5 6 7 8 9 10 11 12 13 14 15 16 17 18 19 20 21 22 23 24 25
000
FTUS44 KLZK 051922 AAA
TAFHRO
TAF AMD
KHRO 051922Z 0519/0618 13010KT 6SM BR BKN010
     FM060100 VRB05KT 2SM -RA BR OVC005
     FM060600 VRB03KT 1/2SM -DZ FG OVC005
     FM061200 32010G17KT 2SM BR OVC015=

USA.gov is the U.S. government's official web portal to all federal, state and local government web resources and services.